Westby, MT (59275)

3:36 AM MDT on August 21, 2014 (GMT -0600)
RAWS CROSBY ND US | Change Station
CLOSE
Current Station
Personal Weather Station
Location: Fortuna, ND
Elevation: 2133 ft
Nearby Weather Stations

Elev 2133 ft 48.97 °N, 104.00 °W | Updated 40 minutes ago

Clear
Clear
59 °F
Feels Like 59 °F
N
5
Wind Variable Wind from NNW
Gusts 10.0 mph

Today
High -- | Low -- °F
--% Chance of Precip.
Yesterday
High -- | Low -- °F
Precip. -- in
5:58 AM 8:00 PM
Waning Crescent, 15% visible
Pressure 29.81 in
Visibility 3.0 miles
Clouds Clear
Dew Point 58 °F
Humidity 97%
Rainfall 0.05 in
Snow Depth Not available.
UV 0 out of 12
Pollen 8.70 out of 12
Air Quality Not available.
Flu Activity Not available.
METAR KD50 210915Z AUTO 30003KT 3SM BR CLR 14/14 A2981 RMK AO2

More Conditions Fewer Conditions

Pressure 29.81 in
Visibility 3.0 miles
Clouds Clear
Dew Point 58 °F
Humidity 97%
Rainfall 0.05 in
Snow Depth Not available.
UV 0 out of 12
Pollen 8.70 out of 12
Air Quality Not available.
Flu Activity Not available.
METAR KD50 210915Z AUTO 30003KT 3SM BR CLR 14/14 A2981 RMK AO2

More Conditions Fewer Conditions

10-Day Weather Forecast

Almanac

Astronomy

Aug. 21, 2014 Rise Set
Actual Time 5:58 AM MDT 8:00 PM MDT
Civil Twilight 5:23 AM MDT 8:34 PM MDT
Nautical Twilight 4:41 AM MDT 9:16 PM MDT
Astronomical Twilight 3:54 AM MDT 10:03 PM MDT
Moon 2:22 AM MDT 5:38 PM MDT
Length of Visible Light 15h 10m
Length of Day
14h 02m
Tomorrow will be 3m 20s shorter.
Waning Crescent, 15% of the Moon is Illuminated
Today
Waning Crescent
Aug 25
New
Sep 2
First Quarter
Sep 8
Full
Sep 15
Last Quarter

Today's Extremes

State Highs State Lows

Community

WunderPhotos

Upload Photos

1,745,871 photos uploaded!

Nearby

Snow Depth

Station Depth Elevation
Crystal Lake 0 in 6050 ft
Daisy Peak 0 in 7600 ft
Spur Park 0 in 8100 ft
Deadman Creek 0 in 6450 ft
Onion Park 0 in 7410 ft

Earthquake Activity

City Distance Mag. Time & Date
No recent earthquake activity has been reported nearby.
Minimum magnitude displayed is 2.5.

Coastal Water Temperatures

Place Temperature
No Stations Reporting

Nearby Weather Stations